Time;durP1;ratioP1;P1;durP2;ratioP2;P2;SDS_P1;SDS_P2;PMS_P1;PMS_P2;Temp;Humidity;BMP_temperature;BMP_pressure;BME280_temperature;BME280_humidity;BME280_pressure;Samples;Min_cycle;Max_cycle;Signal;HPM_P1;HPM_P2
2022/04/22 00:02:20;;;;;;;6.63;4.40;;;21.50;54.50;;;;;;4918571;29;20082;-78
2022/04/22 00:04:46;;;;;;;8.40;5.43;;;21.50;54.30;;;;;;4917232;29;20107;-77
2022/04/22 00:07:12;;;;;;;7.60;4.65;;;21.50;54.30;;;;;;4901785;29;20032;-78
2022/04/22 00:09:38;;;;;;;8.43;5.28;;;21.50;54.40;;;;;;4917289;29;20051;-78
2022/04/22 00:12:04;;;;;;;8.85;4.97;;;21.50;54.40;;;;;;4918128;29;20095;-77
2022/04/22 00:14:30;;;;;;;7.93;4.93;;;21.50;54.40;;;;;;4901071;29;20036;-78
2022/04/22 00:16:56;;;;;;;7.80;4.88;;;21.50;54.40;;;;;;4917360;29;20085;-78
2022/04/22 00:19:21;;;;;;;9.95;5.15;;;21.50;54.40;;;;;;4918112;29;20032;-77
2022/04/22 00:21:47;;;;;;;8.23;5.00;;;21.50;54.40;;;;;;4916840;29;20059;-78
2022/04/22 00:24:14;;;;;;;8.00;4.90;;;21.50;54.40;;;;;;4901221;29;20111;-78
2022/04/22 00:26:40;;;;;;;8.85;5.18;;;21.50;54.30;;;;;;4918014;29;20028;-78
2022/04/22 00:29:07;;;;;;;8.77;4.85;;;21.50;54.30;;;;;;4916954;29;20033;-78
2022/04/22 00:31:33;;;;;;;9.05;4.95;;;21.50;54.30;;;;;;4918198;29;20206;-79
2022/04/22 00:33:59;;;;;;;7.47;4.72;;;21.50;54.20;;;;;;4917038;29;20032;-78
2022/04/22 00:36:25;;;;;;;8.77;5.00;;;21.50;54.80;;;;;;4918962;29;20039;-78
2022/04/22 00:38:51;;;;;;;6.47;4.10;;;21.50;54.30;;;;;;4916967;29;20072;-78
2022/04/22 00:41:17;;;;;;;9.68;4.90;;;21.50;54.30;;;;;;4916451;29;20241;-78
2022/04/22 00:43:45;;;;;;;6.78;4.40;;;21.50;54.20;;;;;;4917981;29;20032;-79
2022/04/22 00:46:11;;;;;;;8.10;4.60;;;21.50;54.20;;;;;;4917630;29;20044;-78
2022/04/22 00:48:38;;;;;;;8.10;4.75;;;21.50;54.10;;;;;;4918183;29;20032;-78
2022/04/22 00:51:05;;;;;;;6.57;4.25;;;21.50;54.20;;;;;;4917235;29;20036;-78
2022/04/22 00:53:33;;;;;;;9.48;5.00;;;21.50;54.20;;;;;;4916240;29;20500;-78
2022/04/22 00:56:01;;;;;;;7.53;4.38;;;21.50;54.70;;;;;;4917055;29;20720;-78
2022/04/22 00:58:27;;;;;;;7.88;4.63;;;21.50;54.10;;;;;;4917860;29;20032;-78
2022/04/22 01:00:53;;;;;;;8.18;4.93;;;21.50;54.20;;;;;;4916436;29;20107;-78
2022/04/22 01:03:19;;;;;;;6.60;4.45;;;21.50;54.10;;;;;;4916023;29;20028;-78
2022/04/22 01:09:47;;;;;;;7.35;4.60;;;21.50;54.10;;;;;;4916727;29;20032;-78
2022/04/22 01:11:31;;;;;;;8.50;4.93;;;21.50;54.10;;;;;;4917511;29;20103;-78
2022/04/22 01:14:01;;;;;;;7.05;4.70;;;21.50;54.10;;;;;;4917282;29;20034;-79
2022/04/22 01:16:27;;;;;;;7.25;4.00;;;21.50;54.10;;;;;;4917906;29;20243;-79
2022/04/22 01:18:53;;;;;;;7.60;4.55;;;21.50;53.90;;;;;;4917484;29;20036;-80
2022/04/22 01:21:19;;;;;;;7.28;4.90;;;21.50;54.10;;;;;;4917998;29;20028;-78
2022/04/22 01:23:45;;;;;;;7.65;4.40;;;21.50;54.10;;;;;;4916613;29;20107;-79
2022/04/22 01:26:12;;;;;;;6.88;4.20;;;21.40;54.10;;;;;;4901225;29;20032;-78
2022/04/22 01:28:39;;;;;;;7.88;4.25;;;21.50;54.10;;;;;;4916802;29;20036;-78
2022/04/22 01:31:05;;;;;;;7.57;4.68;;;21.50;54.00;;;;;;4918273;29;20064;-79
2022/04/22 01:33:31;;;;;;;8.43;4.57;;;21.50;54.40;;;;;;4916464;29;20064;-79
2022/04/22 01:35:57;;;;;;;7.55;4.65;;;21.40;53.90;;;;;;4917646;29;20547;-79
2022/04/22 01:38:22;;;;;;;8.32;4.57;;;21.50;54.00;;;;;;4917124;29;20103;-78
2022/04/22 01:40:48;;;;;;;7.10;4.32;;;21.40;53.90;;;;;;4916954;29;20115;-78
2022/04/22 01:43:14;;;;;;;6.80;3.90;;;21.50;54.00;;;;;;4915763;29;20418;-78
2022/04/22 01:45:40;;;;;;;7.38;4.38;;;21.40;53.80;;;;;;4916088;29;20024;-78
2022/04/22 01:48:06;;;;;;;6.85;3.85;;;21.40;53.80;;;;;;4916801;29;20036;-78
2022/04/22 01:50:31;;;;;;;8.52;4.38;;;21.40;53.90;;;;;;4917515;29;20105;-78
2022/04/22 01:52:57;;;;;;;6.50;4.20;;;21.50;53.80;;;;;;4917739;29;20131;-77
2022/04/22 01:55:23;;;;;;;6.35;3.85;;;21.50;53.90;;;;;;4916751;29;20095;-78
2022/04/22 01:57:49;;;;;;;7.88;4.10;;;21.40;53.90;;;;;;4916988;29;20043;-78
2022/04/22 02:00:14;;;;;;;6.85;4.25;;;21.40;53.80;;;;;;4917840;29;20043;-79
2022/04/22 02:02:40;;;;;;;7.97;4.45;;;21.50;53.90;;;;;;4916895;29;20051;-78
2022/04/22 02:05:06;;;;;;;7.25;4.40;;;21.50;53.70;;;;;;4918151;29;20028;-78
2022/04/22 02:07:32;;;;;;;7.72;4.10;;;21.50;53.80;;;;;;4916643;29;20561;-78
2022/04/22 02:09:58;;;;;;;6.25;4.13;;;21.50;53.70;;;;;;4900998;29;20071;-78
2022/04/22 02:12:24;;;;;;;7.85;4.25;;;21.50;53.90;;;;;;4917263;29;20084;-77
2022/04/22 02:14:50;;;;;;;6.38;4.03;;;21.50;53.80;;;;;;4916999;29;20114;-78
2022/04/22 02:17:15;;;;;;;7.13;4.25;;;21.50;54.40;;;;;;4917011;29;20043;-78
2022/04/22 02:19:41;;;;;;;6.75;3.97;;;21.50;53.80;;;;;;4916036;29;20123;-79
2022/04/22 02:22:07;;;;;;;8.38;4.22;;;21.50;53.80;;;;;;4916514;29;20091;-78
2022/04/22 02:24:33;;;;;;;7.03;4.13;;;21.50;53.80;;;;;;4898902;29;20036;-78
2022/04/22 02:29:43;;;;;;;7.18;4.10;;;21.40;53.80;;;;;;4915790;29;20485;-78
2022/04/22 02:32:09;;;;;;;7.72;4.15;;;21.40;53.80;;;;;;4915823;29;20063;-78
2022/04/22 02:34:35;;;;;;;6.55;4.05;;;21.40;53.70;;;;;;4915404;29;20115;-79
2022/04/22 02:37:01;;;;;;;8.20;4.18;;;21.40;53.70;;;;;;4915656;29;20066;-79
2022/04/22 02:39:27;;;;;;;7.07;4.07;;;21.40;53.80;;;;;;4915627;29;20060;-79
2022/04/22 02:47:21;;;;;;;6.88;3.90;;;21.40;53.60;;;;;;4914423;29;20071;-79
2022/04/22 02:49:47;;;;;;;6.28;3.85;;;21.40;53.80;;;;;;4915759;29;20036;-79
2022/04/22 02:52:14;;;;;;;6.82;3.92;;;21.40;53.80;;;;;;4915518;29;20110;-79
2022/04/22 02:54:40;;;;;;;7.07;4.00;;;21.40;53.60;;;;;;4915534;29;20043;-79
2022/04/22 02:57:07;;;;;;;6.75;4.03;;;21.40;53.60;;;;;;4900400;29;20377;-78
2022/04/22 02:59:35;;;;;;;5.78;3.85;;;21.40;53.60;;;;;;4918567;29;20043;-78
2022/04/22 03:02:01;;;;;;;8.30;4.30;;;21.50;53.60;;;;;;4917136;29;20051;-79
2022/04/22 03:04:27;;;;;;;7.82;4.03;;;21.40;53.70;;;;;;4915293;29;20055;-79
2022/04/22 03:06:55;;;;;;;7.28;3.75;;;21.40;53.60;;;;;;4916689;29;20484;-78
2022/04/22 03:09:21;;;;;;;7.38;4.13;;;21.40;53.60;;;;;;4918035;29;20043;-78
2022/04/22 03:11:47;;;;;;;7.70;3.90;;;21.40;53.60;;;;;;4917900;29;20044;-79
2022/04/22 03:14:13;;;;;;;6.75;3.83;;;21.40;54.20;;;;;;4916030;29;20076;-78
2022/04/22 03:16:40;;;;;;;6.15;3.42;;;21.40;53.40;;;;;;4917098;29;20043;-79
2022/04/22 03:19:07;;;;;;;6.05;3.75;;;21.50;53.90;;;;;;4917264;29;20180;-78
2022/04/22 03:21:34;;;;;;;5.88;3.30;;;21.50;53.80;;;;;;4900657;29;20481;-78
2022/04/22 03:24:00;;;;;;;7.95;4.03;;;21.40;53.50;;;;;;4914897;29;20868;-79
2022/04/22 03:26:25;;;;;;;7.25;3.92;;;21.40;53.40;;;;;;4913962;29;20473;-78
2022/04/22 03:28:52;;;;;;;5.97;3.80;;;21.40;53.40;;;;;;4913774;29;20035;-79
2022/04/22 03:31:19;;;;;;;4.57;3.10;;;21.40;53.60;;;;;;4915252;29;20039;-79
2022/04/22 03:33:45;;;;;;;6.68;3.63;;;21.40;53.60;;;;;;4913493;29;20485;-79
2022/04/22 03:36:10;;;;;;;6.55;3.97;;;21.40;53.60;;;;;;4915078;29;20028;-79
2022/04/22 03:38:36;;;;;;;6.72;3.67;;;21.40;53.60;;;;;;4914632;29;20056;-78
2022/04/22 03:41:02;;;;;;;6.85;3.53;;;21.40;53.50;;;;;;4917582;29;20033;-81
2022/04/22 03:43:28;;;;;;;6.00;3.60;;;21.40;53.50;;;;;;4917109;29;20150;-80
2022/04/22 03:45:53;;;;;;;7.70;3.92;;;21.40;53.30;;;;;;4915866;29;20074;-80
2022/04/22 03:48:20;;;;;;;5.65;3.47;;;21.40;53.40;;;;;;4900453;29;20084;-80
2022/04/22 03:50:46;;;;;;;6.72;3.58;;;21.40;53.50;;;;;;4915619;29;20469;-80
2022/04/22 03:53:12;;;;;;;7.20;3.85;;;21.40;53.30;;;;;;4899259;29;20039;-80
2022/04/22 03:55:42;;;;;;;6.10;3.72;;;21.40;53.60;;;;;;4913677;29;20492;-80
2022/04/22 03:58:12;;;;;;;6.22;3.33;;;21.40;53.50;;;;;;4915341;29;20194;-80
2022/04/22 04:00:42;;;;;;;5.57;3.60;;;21.40;53.50;;;;;;4913772;29;20118;-81
2022/04/22 04:03:17;;;;;;;5.68;3.42;;;21.40;53.50;;;;;;4913536;29;20609;-81
2022/04/22 04:05:51;;;;;;;6.45;3.30;;;21.40;53.40;;;;;;4914685;29;20082;-81
2022/04/22 04:08:21;;;;;;;7.22;3.55;;;21.40;53.40;;;;;;4913679;29;20024;-81
2022/04/22 04:16:21;;;;;;;5.72;3.63;;;21.40;53.40;;;;;;4917197;29;20439;-82
2022/04/22 04:18:46;;;;;;;6.95;3.70;;;21.40;53.20;;;;;;4903519;29;20043;-80
2022/04/22 04:23:56;;;;;;;5.63;3.30;;;21.40;53.30;;;;;;4919360;29;20024;-82
2022/04/22 04:26:26;;;;;;;6.47;3.60;;;21.40;53.40;;;;;;4917889;29;20068;-80
2022/04/22 04:28:53;;;;;;;6.65;3.97;;;21.40;53.40;;;;;;4918445;29;20036;-80
2022/04/22 04:31:19;;;;;;;5.03;3.25;;;21.40;53.40;;;;;;4919135;29;20032;-82
2022/04/22 04:33:46;;;;;;;6.22;3.45;;;21.40;53.30;;;;;;4917262;29;20028;-82
2022/04/22 04:36:12;;;;;;;8.75;3.50;;;21.40;53.30;;;;;;4917700;29;20063;-83
2022/04/22 04:38:39;;;;;;;5.35;3.30;;;21.40;53.50;;;;;;4919334;29;20039;-81
2022/04/22 04:41:07;;;;;;;5.63;3.50;;;21.40;53.30;;;;;;4917832;29;20052;-82
2022/04/22 04:43:34;;;;;;;6.55;3.20;;;21.40;53.20;;;;;;4917611;29;20066;-82
2022/04/22 04:46:00;;;;;;;6.03;3.53;;;21.40;53.30;;;;;;4901049;29;20039;-83
2022/04/22 04:48:25;;;;;;;5.63;3.60;;;21.40;53.30;;;;;;4916590;29;20024;-82
2022/04/22 04:50:51;;;;;;;6.22;3.40;;;21.40;53.40;;;;;;4916328;29;20440;-82
2022/04/22 04:53:20;;;;;;;6.30;3.53;;;21.40;53.40;;;;;;4917494;29;20039;-83
2022/04/22 04:55:46;;;;;;;5.90;3.47;;;21.40;53.70;;;;;;4917989;29;20032;-85
2022/04/22 04:58:12;;;;;;;6.95;3.60;;;21.40;53.30;;;;;;4900868;29;20032;-85
2022/04/22 05:00:38;;;;;;;6.22;3.53;;;21.40;53.30;;;;;;4916344;29;20103;-84
2022/04/22 05:03:04;;;;;;;5.93;3.40;;;21.40;53.20;;;;;;4917287;29;20032;-85
2022/04/22 05:05:30;;;;;;;4.93;3.22;;;21.40;53.20;;;;;;4917510;29;20024;-87
2022/04/22 05:07:58;;;;;;;6.38;3.42;;;21.40;53.40;;;;;;4918385;29;20048;-87
2022/04/22 05:10:30;;;;;;;6.93;3.75;;;21.40;53.30;;;;;;4919604;29;20036;-87
2022/04/22 05:12:56;;;;;;;5.75;3.28;;;21.40;53.20;;;;;;4919228;29;20028;-85
2022/04/22 05:15:22;;;;;;;5.38;3.38;;;21.40;53.20;;;;;;4920506;29;20128;-85
2022/04/22 05:17:49;;;;;;;6.35;3.53;;;21.40;53.30;;;;;;4919001;29;20400;-85
2022/04/22 05:20:17;;;;;;;5.07;3.25;;;21.40;53.30;;;;;;4917883;29;20038;-85
2022/04/22 05:22:44;;;;;;;5.55;3.50;;;21.40;53.10;;;;;;4918268;29;20107;-85
2022/04/22 05:25:11;;;;;;;6.78;3.53;;;21.40;53.20;;;;;;4917242;29;20039;-85
2022/04/22 05:27:37;;;;;;;5.57;3.13;;;21.40;53.00;;;;;;4916746;29;20035;-85
2022/04/22 05:32:51;;;;;;;5.68;3.30;;;21.40;53.20;;;;;;4897815;29;20075;-85
2022/04/22 05:35:19;;;;;;;7.22;3.55;;;21.40;53.10;;;;;;4919214;29;20032;-86
2022/04/22 05:37:46;;;;;;;6.75;3.63;;;21.40;52.90;;;;;;4918867;29;20032;-86
2022/04/22 05:40:14;;;;;;;5.32;3.50;;;21.40;53.20;;;;;;4918085;29;20499;-86
2022/04/22 05:42:40;;;;;;;5.95;3.25;;;21.40;53.00;;;;;;4917758;29;20028;-87
2022/04/22 05:45:07;;;;;;;5.93;3.42;;;21.40;53.10;;;;;;4918234;29;20029;-86
2022/04/22 05:47:34;;;;;;;6.88;3.63;;;21.40;53.00;;;;;;4917121;29;20061;-85
2022/04/22 05:50:00;;;;;;;6.25;3.58;;;21.40;53.10;;;;;;4916018;29;20031;-83
2022/04/22 05:52:26;;;;;;;6.50;3.33;;;21.40;53.10;;;;;;4916662;29;20040;-86
2022/04/22 05:54:53;;;;;;;5.20;3.30;;;21.40;53.20;;;;;;4916377;29;20114;-87
2022/04/22 05:57:19;;;;;;;6.57;3.50;;;21.40;53.20;;;;;;4917982;29;20051;-86
2022/04/22 05:59:45;;;;;;;4.72;3.00;;;21.40;53.20;;;;;;4917522;29;20351;-86
2022/04/22 06:02:11;;;;;;;5.53;3.42;;;21.40;53.10;;;;;;4919077;29;20481;-86
2022/04/22 06:04:37;;;;;;;5.85;3.17;;;21.40;52.90;;;;;;4917816;29;20062;-86
2022/04/22 06:07:02;;;;;;;5.28;3.25;;;21.40;53.20;;;;;;4918499;29;20487;-86
2022/04/22 06:16:19;;;;;;;6.47;3.35;;;21.40;53.00;;;;;;4917769;29;20034;-86
2022/04/22 06:18:44;;;;;;;5.63;3.10;;;21.40;53.00;;;;;;4915829;29;20092;-86
2022/04/22 06:21:11;;;;;;;5.53;3.25;;;21.40;52.90;;;;;;4916854;29;20032;-87
2022/04/22 06:23:36;;;;;;;4.90;2.88;;;21.40;52.70;;;;;;4916973;29;20111;-86
2022/04/22 06:26:02;;;;;;;5.43;3.22;;;21.40;52.70;;;;;;4917594;29;20052;-85
2022/04/22 06:28:28;;;;;;;4.40;3.03;;;21.40;52.70;;;;;;4916831;29;20504;-85
2022/04/22 06:30:54;;;;;;;5.55;3.35;;;21.40;52.90;;;;;;4916545;29;20032;-85
2022/04/22 06:33:20;;;;;;;6.15;3.38;;;21.40;52.70;;;;;;4915781;29;20024;-86
2022/04/22 06:35:46;;;;;;;4.97;3.17;;;21.40;52.80;;;;;;4917830;29;20489;-86
2022/04/22 06:38:15;;;;;;;5.13;3.08;;;21.40;52.90;;;;;;4917855;29;20032;-86
2022/04/22 06:46:10;;;;;;;5.95;3.22;;;21.40;52.90;;;;;;4916841;29;20039;-85
2022/04/22 06:48:36;;;;;;;5.55;3.35;;;21.40;52.90;;;;;;4917127;29;20032;-85
2022/04/22 06:51:06;;;;;;;5.85;3.25;;;21.40;53.00;;;;;;4885286;29;20036;-85
2022/04/22 06:53:33;;;;;;;5.07;3.00;;;21.40;52.90;;;;;;4885132;29;20046;-85
2022/04/22 06:56:00;;;;;;;5.55;3.20;;;21.40;52.90;;;;;;4901371;29;20040;-85
2022/04/22 06:58:28;;;;;;;6.30;3.13;;;21.40;53.10;;;;;;4885846;29;20051;-86
2022/04/22 07:00:54;;;;;;;5.65;3.08;;;21.40;52.70;;;;;;4884917;29;20041;-86
2022/04/22 07:03:19;;;;;;;5.78;3.20;;;21.40;52.90;;;;;;4883870;29;20041;-85
2022/04/22 07:05:48;;;;;;;4.32;2.90;;;21.40;53.00;;;;;;4916171;29;20031;-82
2022/04/22 07:08:17;;;;;;;4.88;2.70;;;21.40;52.80;;;;;;4884122;29;20142;-87
2022/04/22 07:10:46;;;;;;;4.40;2.97;;;21.40;53.10;;;;;;4884766;29;20184;-82
2022/04/22 07:13:14;;;;;;;6.60;3.45;;;21.40;53.00;;;;;;4899853;29;20044;-84
2022/04/22 07:15:40;;;;;;;4.13;2.75;;;21.40;52.90;;;;;;4899924;29;20032;-85
2022/04/22 07:18:07;;;;;;;4.57;2.95;;;21.40;52.80;;;;;;4883811;29;20036;-85
2022/04/22 07:20:33;;;;;;;6.60;3.25;;;21.40;52.80;;;;;;4884061;29;20032;-85
2022/04/22 07:22:59;;;;;;;4.88;3.03;;;21.40;52.80;;;;;;4884096;29;20039;-84
2022/04/22 07:25:27;;;;;;;4.90;2.95;;;21.40;53.00;;;;;;4902223;29;20028;-85
2022/04/22 07:27:53;;;;;;;6.05;3.28;;;21.40;52.70;;;;;;4914733;29;20028;-85
2022/04/22 07:30:20;;;;;;;4.97;3.40;;;21.40;52.90;;;;;;4883587;29;20544;-85
2022/04/22 07:32:47;;;;;;;5.95;3.03;;;21.40;53.00;;;;;;4915548;29;20087;-86
2022/04/22 07:35:18;;;;;;;4.57;2.97;;;21.40;52.70;;;;;;4915728;29;20032;-85
2022/04/22 07:37:49;;;;;;;4.57;2.83;;;21.40;52.80;;;;;;4915726;29;20063;-85
2022/04/22 07:40:16;;;;;;;3.70;2.53;;;21.40;52.70;;;;;;4915549;29;20092;-85
2022/04/22 07:46:46;;;;;;;4.45;2.90;;;21.40;52.80;;;;;;4913962;29;20389;-85
2022/04/22 07:48:19;;;;;;;4.95;2.63;;;21.40;52.60;;;;;;4915097;29;20130;-85
2022/04/22 07:50:47;;;;;;;7.18;3.15;;;21.40;52.50;;;;;;4914713;29;20039;-85
2022/04/22 07:53:17;;;;;;;5.50;2.90;;;21.40;52.60;;;;;;4918898;29;20028;-85
2022/04/22 07:55:43;;;;;;;5.18;3.22;;;21.40;52.70;;;;;;4887005;29;20051;-85
2022/04/22 07:58:13;;;;;;;5.40;3.10;;;21.40;52.60;;;;;;4918278;29;20449;-86
2022/04/22 08:00:43;;;;;;;5.78;3.00;;;21.40;52.60;;;;;;4919315;29;20099;-86
2022/04/22 08:03:09;;;;;;;4.40;2.95;;;21.40;52.70;;;;;;4917699;29;20026;-85
2022/04/22 08:05:37;;;;;;;6.45;3.42;;;21.40;52.80;;;;;;4918092;29;20028;-86
2022/04/22 08:08:03;;;;;;;4.47;2.78;;;21.40;52.80;;;;;;4919062;29;20039;-85
2022/04/22 08:10:29;;;;;;;6.00;3.08;;;21.40;52.80;;;;;;4918126;29;20024;-86
2022/04/22 08:12:54;;;;;;;5.05;2.85;;;21.40;52.80;;;;;;4918927;29;20061;-85
2022/04/22 08:15:21;;;;;;;5.13;3.00;;;21.40;52.90;;;;;;4919923;29;20119;-85
2022/04/22 08:17:47;;;;;;;5.32;3.28;;;21.40;52.80;;;;;;4919513;29;20035;-86
2022/04/22 08:20:13;;;;;;;5.05;2.85;;;21.40;52.80;;;;;;4919990;29;20028;-86
2022/04/22 08:22:39;;;;;;;4.43;2.90;;;21.40;52.90;;;;;;4918750;29;20087;-85
2022/04/22 08:25:06;;;;;;;6.28;3.15;;;21.40;52.80;;;;;;4919191;29;20160;-86
2022/04/22 08:27:32;;;;;;;7.30;3.20;;;21.40;52.80;;;;;;4902516;29;20435;-85
2022/04/22 08:29:59;;;;;;;4.45;2.80;;;21.40;52.80;;;;;;4901641;29;20476;-86
2022/04/22 08:32:25;;;;;;;4.97;3.20;;;21.40;52.80;;;;;;4886327;29;20043;-86
2022/04/22 08:34:51;;;;;;;4.25;2.90;;;21.40;52.70;;;;;;4901772;29;20396;-85
2022/04/22 08:37:18;;;;;;;5.63;3.10;;;21.40;52.60;;;;;;4886264;29;20043;-85
2022/04/22 08:39:44;;;;;;;4.70;2.97;;;21.40;52.80;;;;;;4902002;29;20485;-85
2022/04/22 08:50:19;;;;;;;4.47;3.03;;;21.40;52.70;;;;;;4843836;29;20044;-86
2022/04/22 08:52:56;;;;;;;4.80;3.10;;;21.40;52.70;;;;;;4864009;29;20097;-84
2022/04/22 08:55:26;;;;;;;5.32;3.17;;;21.40;52.80;;;;;;4901484;29;20054;-87
2022/04/22 08:57:54;;;;;;;5.80;3.40;;;21.40;52.70;;;;;;4918720;29;20115;-87
2022/04/22 09:00:23;;;;;;;5.70;2.83;;;21.40;52.70;;;;;;4918862;29;20036;-86
2022/04/22 09:02:50;;;;;;;5.00;3.30;;;21.40;52.80;;;;;;4917669;29;20031;-87
2022/04/22 09:05:16;;;;;;;5.90;3.10;;;21.40;52.70;;;;;;4918483;29;20032;-86
2022/04/22 09:07:42;;;;;;;4.75;2.92;;;21.40;52.70;;;;;;4917397;29;20034;-86
2022/04/22 09:10:09;;;;;;;5.35;2.80;;;21.40;52.70;;;;;;4918758;29;20060;-86
2022/04/22 09:12:35;;;;;;;4.85;2.88;;;21.40;52.70;;;;;;4917441;29;20040;-86
2022/04/22 09:15:01;;;;;;;4.60;2.90;;;21.40;52.80;;;;;;4917049;29;20032;-86
2022/04/22 09:17:33;;;;;;;5.95;3.10;;;21.40;52.70;;;;;;4917464;29;20100;-88
2022/04/22 09:20:01;;;;;;;4.10;2.63;;;21.40;52.70;;;;;;4918533;29;20063;-87
2022/04/22 09:22:28;;;;;;;4.78;2.75;;;21.40;52.70;;;;;;4917215;29;20032;-86
2022/04/22 09:24:56;;;;;;;4.45;2.90;;;21.40;52.80;;;;;;4916710;29;20044;-86
2022/04/22 09:27:36;;;;;;;5.85;3.35;;;21.40;52.70;;;;;;4917416;29;20385;-85
2022/04/22 09:30:07;;;;;;;5.45;3.08;;;21.40;52.80;;;;;;4900981;29;20622;-83
2022/04/22 09:32:34;;;;;;;4.60;2.70;;;21.40;52.80;;;;;;4915814;29;20036;-85
2022/04/22 09:35:09;;;;;;;5.10;3.17;;;21.40;52.80;;;;;;4900223;29;20083;-83
2022/04/22 09:43:33;;;;;;;8.55;3.83;;;21.40;53.10;;;;;;4916762;29;20024;-82
2022/04/22 09:45:59;;;;;;;9.20;3.65;;;21.50;54.00;;;;;;4915582;29;20028;-81
2022/04/22 09:48:24;;;;;;;11.07;3.92;;;21.50;54.70;;;;;;4916436;29;20401;-80
2022/04/22 09:50:55;;;;;;;16.60;4.30;;;21.60;55.40;;;;;;4915535;29;20040;-81
2022/04/22 09:53:34;;;;;;;11.45;4.65;;;21.60;56.10;;;;;;4899357;29;20390;-82
2022/04/22 09:56:09;;;;;;;10.15;4.00;;;21.70;57.40;;;;;;4884307;29;20040;-81
2022/04/22 09:58:36;;;;;;;9.88;3.60;;;21.70;55.70;;;;;;4916353;29;20374;-81
2022/04/22 10:01:05;;;;;;;11.77;4.18;;;21.70;54.60;;;;;;4899406;29;20449;-81
2022/04/22 10:03:35;;;;;;;9.97;4.03;;;21.70;56.60;;;;;;4916011;29;20103;-84
2022/04/22 10:06:01;;;;;;;12.35;4.65;;;21.70;57.70;;;;;;4915835;29;20291;-86
2022/04/22 10:08:31;;;;;;;9.98;4.32;;;21.70;58.50;;;;;;4916588;29;20032;-84
2022/04/22 10:11:02;;;;;;;10.32;4.18;;;21.70;58.50;;;;;;4916885;29;20083;-84
2022/04/22 10:13:33;;;;;;;7.90;4.20;;;21.80;60.30;;;;;;4916429;29;20032;-87
2022/04/22 10:16:00;;;;;;;9.63;4.22;;;21.80;60.80;;;;;;4915823;29;20083;-82
2022/04/22 10:18:27;;;;;;;9.63;4.00;;;21.80;61.00;;;;;;4899439;29;20374;-82
2022/04/22 10:20:54;;;;;;;11.40;4.40;;;21.80;59.80;;;;;;4914831;29;20443;-82
2022/04/22 10:23:20;;;;;;;16.15;4.05;;;21.80;60.00;;;;;;4915140;29;20404;-84
2022/04/22 10:25:47;;;;;;;14.48;3.80;;;21.70;60.30;;;;;;4914872;29;20476;-76
2022/04/22 10:28:13;;;;;;;34.28;20.92;;;21.70;59.30;;;;;;4899207;29;20072;-80
2022/04/22 10:30:42;;;;;;;25.33;15.38;;;21.60;57.00;;;;;;4913005;29;20059;-82
2022/04/22 10:33:09;;;;;;;20.70;13.30;;;21.60;54.00;;;;;;4916237;29;20091;-83
2022/04/22 10:35:41;;;;;;;26.42;14.18;;;21.50;56.30;;;;;;4914718;29;20638;-84
2022/04/22 10:38:29;;;;;;;28.00;14.82;;;21.60;55.60;;;;;;4914636;29;20032;-79
2022/04/22 10:40:55;;;;;;;24.67;13.52;;;21.60;56.50;;;;;;4915599;29;20032;-80
2022/04/22 10:43:24;;;;;;;24.20;13.73;;;21.70;56.60;;;;;;4915306;29;20028;-80
2022/04/22 10:48:39;;;;;;;22.42;12.55;;;21.70;57.20;;;;;;4914353;29;20036;-81
2022/04/22 10:51:07;;;;;;;25.77;12.85;;;21.70;55.20;;;;;;4898644;29;20451;-81
2022/04/22 10:53:41;;;;;;;20.17;11.60;;;21.70;55.30;;;;;;4915215;29;20032;-81
2022/04/22 10:56:25;;;;;;;24.95;12.25;;;21.70;54.90;;;;;;4915351;29;20032;-81
2022/04/22 10:59:16;;;;;;;21.70;12.25;;;21.70;55.80;;;;;;4915386;29;20083;-81
2022/04/22 11:01:46;;;;;;;25.23;12.45;;;21.60;55.00;;;;;;4913869;29;20034;-81
2022/04/22 11:04:18;;;;;;;22.23;11.88;;;21.60;55.80;;;;;;4915074;29;20030;-81
2022/04/22 11:06:44;;;;;;;21.92;12.32;;;21.60;54.80;;;;;;4914345;29;20132;-82
2022/04/22 11:09:10;;;;;;;19.35;10.52;;;21.60;54.70;;;;;;4914382;29;20428;-81
2022/04/22 11:11:42;;;;;;;23.08;11.32;;;21.60;55.30;;;;;;4914208;29;20115;-81
2022/04/22 11:14:19;;;;;;;22.52;10.82;;;21.60;55.00;;;;;;4914014;29;20032;-80
2022/04/22 11:16:45;;;;;;;20.90;10.80;;;21.60;55.00;;;;;;4914086;29;20051;-81
2022/04/22 11:19:20;;;;;;;22.90;11.85;;;21.60;55.60;;;;;;4898262;29;20032;-80
2022/04/22 11:21:50;;;;;;;22.27;10.60;;;21.60;55.90;;;;;;4914473;29;20099;-80
2022/04/22 11:24:21;;;;;;;24.38;11.48;;;21.60;55.60;;;;;;4914980;29;20031;-81
2022/04/22 11:26:48;;;;;;;19.52;11.07;;;21.60;55.90;;;;;;4918360;29;20064;-81
2022/04/22 11:29:15;;;;;;;20.50;10.60;;;21.60;55.80;;;;;;4920306;29;20272;-81
2022/04/22 11:31:54;;;;;;;20.75;11.10;;;21.60;55.30;;;;;;4904826;29;20448;-81
2022/04/22 11:34:46;;;;;;;25.52;11.50;;;21.60;55.80;;;;;;4904595;29;20032;-81
2022/04/22 11:37:21;;;;;;;21.88;11.13;;;21.60;55.70;;;;;;4921620;29;20107;-81
2022/04/22 11:39:49;;;;;;;19.33;10.75;;;21.60;55.70;;;;;;4889045;29;20039;-81
2022/04/22 11:42:17;;;;;;;21.80;11.48;;;21.70;55.50;;;;;;4920239;29;20042;-81
2022/04/22 11:45:11;;;;;;;22.10;11.75;;;21.70;55.70;;;;;;4924221;29;20028;-80
2022/04/22 11:47:37;;;;;;;25.08;12.05;;;21.70;55.70;;;;;;4929141;29;20433;-80
2022/04/22 11:50:04;;;;;;;28.05;11.93;;;21.70;55.80;;;;;;4900659;29;20040;-80
2022/04/22 11:52:30;;;;;;;21.65;11.88;;;21.70;55.70;;;;;;4911907;29;20032;-81
2022/04/22 11:55:01;;;;;;;23.45;11.05;;;21.70;55.70;;;;;;4926109;29;20123;-78
2022/04/22 11:57:39;;;;;;;21.92;11.38;;;21.70;55.70;;;;;;4929118;29;20036;-80
2022/04/22 12:05:42;;;;;;;26.27;12.02;;;21.70;55.60;;;;;;4915900;29;20482;-83
2022/04/22 12:08:11;;;;;;;34.15;13.60;;;21.70;55.30;;;;;;4929211;29;20108;-83
2022/04/22 12:10:37;;;;;;;33.53;14.13;;;21.70;55.70;;;;;;4938098;29;20146;-79
2022/04/22 12:13:05;;;;;;;34.67;13.50;;;21.70;55.70;;;;;;4937530;29;20047;-82
2022/04/22 12:15:30;;;;;;;32.45;14.60;;;21.70;55.70;;;;;;4929237;29;20062;-83
2022/04/22 12:17:57;;;;;;;31.23;13.23;;;21.70;56.00;;;;;;4929150;29;20396;-82
2022/04/22 12:20:25;;;;;;;30.30;13.63;;;21.70;55.80;;;;;;4937237;29;20055;-82
2022/04/22 12:22:52;;;;;;;28.73;13.38;;;21.70;56.00;;;;;;4933007;29;20087;-84
2022/04/22 12:25:20;;;;;;;27.50;13.10;;;21.70;55.80;;;;;;4933623;29;20489;-83
2022/04/22 12:28:09;;;;;;;26.60;12.05;;;21.70;56.20;;;;;;4941015;29;20027;-82
2022/04/22 12:30:40;;;;;;;23.80;12.63;;;21.70;56.30;;;;;;4928061;29;20052;-85
2022/04/22 12:33:15;;;;;;;26.48;12.90;;;21.60;56.30;;;;;;4928670;29;20020;-84
2022/04/22 12:35:42;;;;;;;26.42;12.52;;;21.70;56.40;;;;;;4913407;29;20032;-84
2022/04/22 12:38:12;;;;;;;25.10;12.02;;;21.70;56.40;;;;;;4942432;29;20026;-82
2022/04/22 12:40:48;;;;;;;22.00;11.02;;;21.70;56.40;;;;;;4897932;29;20397;-83
2022/04/22 12:43:28;;;;;;;28.80;12.23;;;21.60;56.30;;;;;;4895454;29;20036;-84
2022/04/22 12:54:19;;;;;;;27.20;11.15;;;21.60;55.70;;;;;;4902842;29;20036;-83
2022/04/22 12:56:54;;;;;;;21.00;11.50;;;21.60;55.00;;;;;;4903141;29;20634;-84
2022/04/22 12:59:20;;;;;;;23.58;11.85;;;21.60;55.10;;;;;;4888372;29;20199;-84
2022/04/22 13:01:52;;;;;;;23.70;11.07;;;21.60;55.00;;;;;;4920093;29;20484;-84
2022/04/22 13:04:24;;;;;;;23.23;12.13;;;21.60;55.30;;;;;;4918479;29;20126;-84
2022/04/22 13:06:51;;;;;;;22.55;11.25;;;21.70;55.90;;;;;;4918508;29;20110;-84
2022/04/22 13:09:18;;;;;;;22.23;11.23;;;21.70;55.50;;;;;;4886414;29;20043;-82
2022/04/22 13:11:45;;;;;;;22.50;11.00;;;21.70;55.60;;;;;;4917872;29;20039;-82
2022/04/22 13:14:15;;;;;;;21.85;10.95;;;21.70;55.00;;;;;;4917232;29;20056;-83
2022/04/22 13:16:40;;;;;;;;;;;21.70;55.30;;;;;;4901669;29;20111;-82
2022/04/22 13:19:06;;;;;;;21.92;10.85;;;21.70;54.70;;;;;;4919746;29;19961;-83
2022/04/22 13:21:32;;;;;;;23.23;10.70;;;21.70;55.30;;;;;;4921543;29;20054;-81
2022/04/22 13:23:57;;;;;;;20.17;10.23;;;21.70;55.10;;;;;;4917975;29;20509;-82
2022/04/22 13:26:25;;;;;;;19.15;10.95;;;21.70;55.00;;;;;;4920077;29;20520;-82
2022/04/22 13:28:53;;;;;;;19.05;10.68;;;21.70;54.90;;;;;;4904204;29;20111;-82
2022/04/22 13:31:22;;;;;;;20.52;10.73;;;21.70;54.80;;;;;;4904333;29;20087;-78
2022/04/22 13:33:48;;;;;;;23.83;11.07;;;21.70;55.00;;;;;;4920969;29;20114;-81
2022/04/22 13:36:15;;;;;;;21.20;10.98;;;21.70;54.70;;;;;;4904200;29;20032;-81
2022/04/22 13:38:43;;;;;;;21.92;10.75;;;21.70;55.10;;;;;;4917750;29;20032;-82
2022/04/22 13:41:09;;;;;;;22.45;11.52;;;21.70;54.90;;;;;;4886311;29;20074;-81
2022/04/22 13:43:35;;;;;;;20.13;10.80;;;21.70;54.80;;;;;;4918587;29;20028;-82
2022/04/22 13:54:17;;;;;;;21.20;10.32;;;21.70;54.60;;;;;;4919640;29;20477;-83
2022/04/22 13:56:43;;;;;;;18.50;10.32;;;21.70;54.50;;;;;;4922704;29;20074;-83
2022/04/22 13:59:09;;;;;;;20.02;10.48;;;21.70;54.60;;;;;;4920252;29;20152;-83
2022/04/22 14:01:34;;;;;;;19.00;10.85;;;21.60;54.50;;;;;;4920705;29;20035;-83
2022/04/22 14:04:00;;;;;;;19.20;10.52;;;21.70;54.50;;;;;;4898087;29;20040;-83